sensor_id;sensor_type;location;lat;lon;timestamp;P1;durP1;ratioP1;P2;durP2;ratioP2
36241;SDS011;22283;42.748;12.732;2023-02-16T00:00:36;17.65;;;10.02;;
36241;SDS011;22283;42.748;12.732;2023-02-16T00:05:37;24.13;;;11.37;;
36241;SDS011;22283;42.748;12.732;2023-02-16T00:10:38;19.13;;;11.53;;
36241;SDS011;22283;42.748;12.732;2023-02-16T00:15:39;22.80;;;11.82;;
36241;SDS011;22283;42.748;12.732;2023-02-16T00:20:40;21.00;;;12.07;;
36241;SDS011;22283;42.748;12.732;2023-02-16T00:25:41;19.27;;;12.37;;
36241;SDS011;22283;42.748;12.732;2023-02-16T00:30:42;19.73;;;11.47;;
36241;SDS011;22283;42.748;12.732;2023-02-16T00:35:43;20.00;;;11.33;;
36241;SDS011;22283;42.748;12.732;2023-02-16T00:40:44;21.15;;;10.88;;
36241;SDS011;22283;42.748;12.732;2023-02-16T00:45:45;21.60;;;11.10;;
36241;SDS011;22283;42.748;12.732;2023-02-16T00:50:46;18.67;;;10.13;;
36241;SDS011;22283;42.748;12.732;2023-02-16T00:55:46;19.17;;;9.60;;
36241;SDS011;22283;42.748;12.732;2023-02-16T01:00:51;19.43;;;10.10;;
36241;SDS011;22283;42.748;12.732;2023-02-16T01:05:54;21.73;;;10.80;;
36241;SDS011;22283;42.748;12.732;2023-02-16T01:11:13;22.58;;;9.93;;
36241;SDS011;22283;42.748;12.732;2023-02-16T01:16:16;19.30;;;10.90;;
36241;SDS011;22283;42.748;12.732;2023-02-16T01:21:43;24.88;;;11.07;;
36241;SDS011;22283;42.748;12.732;2023-02-16T01:26:45;24.77;;;10.83;;
36241;SDS011;22283;42.748;12.732;2023-02-16T01:31:49;21.08;;;10.07;;
36241;SDS011;22283;42.748;12.732;2023-02-16T01:36:49;19.87;;;9.93;;
36241;SDS011;22283;42.748;12.732;2023-02-16T01:47:02;21.38;;;10.18;;
36241;SDS011;22283;42.748;12.732;2023-02-16T01:57:24;21.80;;;9.48;;
36241;SDS011;22283;42.748;12.732;2023-02-16T02:02:27;18.90;;;9.45;;
36241;SDS011;22283;42.748;12.732;2023-02-16T02:07:40;16.48;;;9.32;;
36241;SDS011;22283;42.748;12.732;2023-02-16T02:12:52;18.10;;;8.88;;
36241;SDS011;22283;42.748;12.732;2023-02-16T02:17:59;20.23;;;9.88;;
36241;SDS011;22283;42.748;12.732;2023-02-16T02:34:03;19.70;;;9.45;;
36241;SDS011;22283;42.748;12.732;2023-02-16T02:44:53;23.90;;;11.80;;
36241;SDS011;22283;42.748;12.732;2023-02-16T02:49:57;21.40;;;11.30;;
36241;SDS011;22283;42.748;12.732;2023-02-16T02:54:57;23.80;;;11.57;;
36241;SDS011;22283;42.748;12.732;2023-02-16T03:00:20;24.08;;;11.88;;
36241;SDS011;22283;42.748;12.732;2023-02-16T03:05:53;21.60;;;12.20;;
36241;SDS011;22283;42.748;12.732;2023-02-16T03:11:18;19.83;;;11.60;;
36241;SDS011;22283;42.748;12.732;2023-02-16T03:16:44;19.10;;;11.35;;
36241;SDS011;22283;42.748;12.732;2023-02-16T03:22:14;19.15;;;10.95;;
36241;SDS011;22283;42.748;12.732;2023-02-16T03:27:35;18.95;;;10.63;;
36241;SDS011;22283;42.748;12.732;2023-02-16T03:32:57;23.45;;;13.05;;
36241;SDS011;22283;42.748;12.732;2023-02-16T03:37:58;20.77;;;12.87;;
36241;SDS011;22283;42.748;12.732;2023-02-16T03:43:00;19.37;;;11.13;;
36241;SDS011;22283;42.748;12.732;2023-02-16T03:48:03;20.40;;;11.50;;
36241;SDS011;22283;42.748;12.732;2023-02-16T03:53:03;24.10;;;13.30;;
36241;SDS011;22283;42.748;12.732;2023-02-16T03:58:07;22.48;;;12.32;;
36241;SDS011;22283;42.748;12.732;2023-02-16T04:03:09;20.95;;;11.35;;
36241;SDS011;22283;42.748;12.732;2023-02-16T04:08:13;20.40;;;12.57;;
36241;SDS011;22283;42.748;12.732;2023-02-16T04:13:14;20.83;;;12.40;;
36241;SDS011;22283;42.748;12.732;2023-02-16T04:18:14;19.20;;;12.23;;
36241;SDS011;22283;42.748;12.732;2023-02-16T04:23:15;23.70;;;13.23;;
36241;SDS011;22283;42.748;12.732;2023-02-16T04:28:16;23.57;;;12.87;;
36241;SDS011;22283;42.748;12.732;2023-02-16T04:33:17;26.57;;;15.33;;
36241;SDS011;22283;42.748;12.732;2023-02-16T04:38:17;26.00;;;15.37;;
36241;SDS011;22283;42.748;12.732;2023-02-16T04:43:18;25.85;;;14.55;;
36241;SDS011;22283;42.748;12.732;2023-02-16T04:48:19;21.87;;;13.03;;
36241;SDS011;22283;42.748;12.732;2023-02-16T04:53:20;21.23;;;12.77;;
36241;SDS011;22283;42.748;12.732;2023-02-16T04:58:20;18.67;;;11.97;;
36241;SDS011;22283;42.748;12.732;2023-02-16T05:03:21;25.63;;;15.33;;
36241;SDS011;22283;42.748;12.732;2023-02-16T05:08:22;28.33;;;16.57;;
36241;SDS011;22283;42.748;12.732;2023-02-16T05:13:22;33.33;;;17.93;;
36241;SDS011;22283;42.748;12.732;2023-02-16T05:18:41;24.05;;;14.20;;
36241;SDS011;22283;42.748;12.732;2023-02-16T05:23:42;28.13;;;14.43;;
36241;SDS011;22283;42.748;12.732;2023-02-16T05:28:43;23.17;;;12.67;;
36241;SDS011;22283;42.748;12.732;2023-02-16T05:33:43;22.10;;;13.33;;
36241;SDS011;22283;42.748;12.732;2023-02-16T05:38:44;26.00;;;14.70;;
36241;SDS011;22283;42.748;12.732;2023-02-16T05:43:47;24.50;;;14.57;;
36241;SDS011;22283;42.748;12.732;2023-02-16T05:48:58;29.15;;;12.10;;
36241;SDS011;22283;42.748;12.732;2023-02-16T05:54:00;25.40;;;13.50;;
36241;SDS011;22283;42.748;12.732;2023-02-16T05:59:01;26.13;;;14.95;;
36241;SDS011;22283;42.748;12.732;2023-02-16T06:04:01;31.80;;;16.20;;
36241;SDS011;22283;42.748;12.732;2023-02-16T06:09:03;26.50;;;14.70;;
36241;SDS011;22283;42.748;12.732;2023-02-16T06:14:06;31.33;;;14.45;;
36241;SDS011;22283;42.748;12.732;2023-02-16T06:19:10;31.85;;;14.13;;
36241;SDS011;22283;42.748;12.732;2023-02-16T06:24:11;31.50;;;15.93;;
36241;SDS011;22283;42.748;12.732;2023-02-16T06:34:13;43.83;;;17.20;;
36241;SDS011;22283;42.748;12.732;2023-02-16T06:39:21;33.45;;;16.70;;
36241;SDS011;22283;42.748;12.732;2023-02-16T06:44:21;40.80;;;13.70;;
36241;SDS011;22283;42.748;12.732;2023-02-16T06:49:22;24.63;;;11.60;;
36241;SDS011;22283;42.748;12.732;2023-02-16T06:54:23;20.97;;;11.47;;
36241;SDS011;22283;42.748;12.732;2023-02-16T06:59:23;43.40;;;13.50;;
36241;SDS011;22283;42.748;12.732;2023-02-16T07:04:24;31.60;;;13.23;;
36241;SDS011;22283;42.748;12.732;2023-02-16T07:09:25;28.60;;;13.90;;
36241;SDS011;22283;42.748;12.732;2023-02-16T07:14:25;30.67;;;13.80;;
36241;SDS011;22283;42.748;12.732;2023-02-16T07:19:26;34.63;;;15.10;;
36241;SDS011;22283;42.748;12.732;2023-02-16T07:24:29;34.85;;;13.65;;
36241;SDS011;22283;42.748;12.732;2023-02-16T07:29:30;34.70;;;15.13;;
36241;SDS011;22283;42.748;12.732;2023-02-16T07:34:30;24.80;;;15.10;;
36241;SDS011;22283;42.748;12.732;2023-02-16T07:39:31;34.30;;;17.60;;
36241;SDS011;22283;42.748;12.732;2023-02-16T07:44:32;23.53;;;14.67;;
36241;SDS011;22283;42.748;12.732;2023-02-16T07:49:32;34.97;;;17.07;;
36241;SDS011;22283;42.748;12.732;2023-02-16T07:54:33;26.63;;;16.30;;
36241;SDS011;22283;42.748;12.732;2023-02-16T07:59:34;29.47;;;18.23;;
36241;SDS011;22283;42.748;12.732;2023-02-16T08:04:35;34.00;;;19.63;;
36241;SDS011;22283;42.748;12.732;2023-02-16T08:09:35;31.60;;;20.23;;
36241;SDS011;22283;42.748;12.732;2023-02-16T08:14:36;29.00;;;18.33;;
36241;SDS011;22283;42.748;12.732;2023-02-16T08:19:38;31.35;;;18.15;;
36241;SDS011;22283;42.748;12.732;2023-02-16T08:24:39;31.95;;;18.45;;
36241;SDS011;22283;42.748;12.732;2023-02-16T08:29:40;36.30;;;19.03;;
36241;SDS011;22283;42.748;12.732;2023-02-16T08:34:41;40.57;;;18.13;;
36241;SDS011;22283;42.748;12.732;2023-02-16T08:39:41;30.83;;;19.10;;
36241;SDS011;22283;42.748;12.732;2023-02-16T08:44:42;34.87;;;20.23;;
36241;SDS011;22283;42.748;12.732;2023-02-16T08:49:43;35.28;;;19.75;;
36241;SDS011;22283;42.748;12.732;2023-02-16T08:54:44;33.28;;;21.73;;
36241;SDS011;22283;42.748;12.732;2023-02-16T08:59:45;33.47;;;20.20;;
36241;SDS011;22283;42.748;12.732;2023-02-16T09:05:06;29.95;;;18.60;;
36241;SDS011;22283;42.748;12.732;2023-02-16T09:10:06;30.13;;;20.57;;
36241;SDS011;22283;42.748;12.732;2023-02-16T09:15:07;46.00;;;22.73;;
36241;SDS011;22283;42.748;12.732;2023-02-16T09:20:08;33.90;;;22.23;;
36241;SDS011;22283;42.748;12.732;2023-02-16T09:25:09;34.53;;;21.93;;
36241;SDS011;22283;42.748;12.732;2023-02-16T09:30:10;31.37;;;21.97;;
36241;SDS011;22283;42.748;12.732;2023-02-16T09:35:11;38.37;;;24.60;;
36241;SDS011;22283;42.748;12.732;2023-02-16T09:40:12;41.90;;;26.03;;
36241;SDS011;22283;42.748;12.732;2023-02-16T09:45:14;57.67;;;34.22;;
36241;SDS011;22283;42.748;12.732;2023-02-16T09:50:18;36.22;;;23.25;;
36241;SDS011;22283;42.748;12.732;2023-02-16T09:55:19;51.15;;;30.33;;
36241;SDS011;22283;42.748;12.732;2023-02-16T10:05:40;34.95;;;24.48;;
36241;SDS011;22283;42.748;12.732;2023-02-16T10:10:58;42.85;;;21.05;;
36241;SDS011;22283;42.748;12.732;2023-02-16T10:16:34;36.67;;;21.05;;
36241;SDS011;22283;42.748;12.732;2023-02-16T10:21:40;40.40;;;22.25;;
36241;SDS011;22283;42.748;12.732;2023-02-16T10:27:01;31.65;;;21.67;;
36241;SDS011;22283;42.748;12.732;2023-02-16T10:32:11;31.52;;;21.30;;
36241;SDS011;22283;42.748;12.732;2023-02-16T10:43:05;32.22;;;18.70;;
36241;SDS011;22283;42.748;12.732;2023-02-16T10:48:15;39.13;;;19.55;;
36241;SDS011;22283;42.748;12.732;2023-02-16T10:53:23;28.10;;;18.73;;
36241;SDS011;22283;42.748;12.732;2023-02-16T10:58:37;39.92;;;18.55;;
36241;SDS011;22283;42.748;12.732;2023-02-16T11:03:43;33.03;;;20.10;;
36241;SDS011;22283;42.748;12.732;2023-02-16T11:08:49;32.25;;;19.00;;
36241;SDS011;22283;42.748;12.732;2023-02-16T11:14:06;34.50;;;20.60;;
36241;SDS011;22283;42.748;12.732;2023-02-16T11:19:22;34.58;;;22.38;;
36241;SDS011;22283;42.748;12.732;2023-02-16T11:29:27;44.58;;;22.02;;
36241;SDS011;22283;42.748;12.732;2023-02-16T11:34:30;39.92;;;26.98;;
36241;SDS011;22283;42.748;12.732;2023-02-16T11:39:39;46.03;;;32.35;;
36241;SDS011;22283;42.748;12.732;2023-02-16T11:44:50;47.90;;;32.25;;
36241;SDS011;22283;42.748;12.732;2023-02-16T11:55:25;47.80;;;31.92;;
36241;SDS011;22283;42.748;12.732;2023-02-16T12:00:31;52.40;;;38.10;;
36241;SDS011;22283;42.748;12.732;2023-02-16T12:16:11;47.30;;;30.05;;
36241;SDS011;22283;42.748;12.732;2023-02-16T12:21:27;60.80;;;41.23;;
36241;SDS011;22283;42.748;12.732;2023-02-16T12:32:00;78.57;;;51.00;;
36241;SDS011;22283;42.748;12.732;2023-02-16T12:48:37;35.35;;;26.45;;
36241;SDS011;22283;42.748;12.732;2023-02-16T12:58:57;33.50;;;23.05;;
36241;SDS011;22283;42.748;12.732;2023-02-16T13:04:40;31.05;;;23.02;;
36241;SDS011;22283;42.748;12.732;2023-02-16T13:09:51;29.67;;;22.15;;
36241;SDS011;22283;42.748;12.732;2023-02-16T13:15:02;41.67;;;23.33;;
36241;SDS011;22283;42.748;12.732;2023-02-16T13:20:43;37.45;;;25.20;;
36241;SDS011;22283;42.748;12.732;2023-02-16T13:47:05;30.30;;;23.00;;
36241;SDS011;22283;42.748;12.732;2023-02-16T14:02:54;50.60;;;29.98;;
36241;SDS011;22283;42.748;12.732;2023-02-16T14:13:10;20.90;;;17.33;;
36241;SDS011;22283;42.748;12.732;2023-02-16T14:23:28;31.17;;;17.80;;
36241;SDS011;22283;42.748;12.732;2023-02-16T14:43:45;31.30;;;21.63;;
36241;SDS011;22283;42.748;12.732;2023-02-16T15:04:41;27.90;;;17.77;;
36241;SDS011;22283;42.748;12.732;2023-02-16T15:09:42;26.27;;;19.90;;
36241;SDS011;22283;42.748;12.732;2023-02-16T15:14:57;29.55;;;21.42;;
36241;SDS011;22283;42.748;12.732;2023-02-16T15:20:41;33.30;;;23.30;;
36241;SDS011;22283;42.748;12.732;2023-02-16T15:25:31;35.72;;;25.73;;
36241;SDS011;22283;42.748;12.732;2023-02-16T15:30:39;35.92;;;25.92;;
36241;SDS011;22283;42.748;12.732;2023-02-16T15:35:46;33.55;;;24.33;;
36241;SDS011;22283;42.748;12.732;2023-02-16T15:40:58;41.08;;;25.92;;
36241;SDS011;22283;42.748;12.732;2023-02-16T15:46:01;31.00;;;23.27;;
36241;SDS011;22283;42.748;12.732;2023-02-16T15:56:24;39.60;;;24.55;;
36241;SDS011;22283;42.748;12.732;2023-02-16T16:01:36;37.13;;;26.98;;
36241;SDS011;22283;42.748;12.732;2023-02-16T16:06:38;30.13;;;24.47;;
36241;SDS011;22283;42.748;12.732;2023-02-16T16:11:39;44.65;;;25.33;;
36241;SDS011;22283;42.748;12.732;2023-02-16T16:16:41;36.43;;;25.63;;
36241;SDS011;22283;42.748;12.732;2023-02-16T16:21:47;56.75;;;27.35;;
36241;SDS011;22283;42.748;12.732;2023-02-16T16:26:52;48.65;;;34.28;;
36241;SDS011;22283;42.748;12.732;2023-02-16T16:31:58;43.28;;;31.05;;
36241;SDS011;22283;42.748;12.732;2023-02-16T16:36:58;46.57;;;27.60;;
36241;SDS011;22283;42.748;12.732;2023-02-16T16:42:07;45.33;;;31.90;;
36241;SDS011;22283;42.748;12.732;2023-02-16T16:57:54;43.40;;;29.50;;
36241;SDS011;22283;42.748;12.732;2023-02-16T17:03:00;39.40;;;27.27;;
36241;SDS011;22283;42.748;12.732;2023-02-16T17:08:02;43.13;;;33.03;;
36241;SDS011;22283;42.748;12.732;2023-02-16T17:13:03;51.90;;;30.67;;
36241;SDS011;22283;42.748;12.732;2023-02-16T17:18:04;35.53;;;29.00;;
36241;SDS011;22283;42.748;12.732;2023-02-16T17:23:06;41.38;;;30.88;;
36241;SDS011;22283;42.748;12.732;2023-02-16T17:28:07;44.73;;;30.40;;
36241;SDS011;22283;42.748;12.732;2023-02-16T17:33:09;51.00;;;32.95;;
36241;SDS011;22283;42.748;12.732;2023-02-16T17:38:11;50.03;;;37.03;;
36241;SDS011;22283;42.748;12.732;2023-02-16T17:43:17;49.40;;;34.95;;
36241;SDS011;22283;42.748;12.732;2023-02-16T17:53:28;50.50;;;36.30;;
36241;SDS011;22283;42.748;12.732;2023-02-16T17:58:29;52.40;;;38.83;;
36241;SDS011;22283;42.748;12.732;2023-02-16T18:03:29;55.67;;;41.43;;
36241;SDS011;22283;42.748;12.732;2023-02-16T18:08:30;58.37;;;40.87;;
36241;SDS011;22283;42.748;12.732;2023-02-16T18:13:31;56.37;;;40.43;;
36241;SDS011;22283;42.748;12.732;2023-02-16T18:18:32;67.23;;;44.63;;
36241;SDS011;22283;42.748;12.732;2023-02-16T18:23:36;62.03;;;41.95;;
36241;SDS011;22283;42.748;12.732;2023-02-16T18:28:36;63.13;;;45.27;;
36241;SDS011;22283;42.748;12.732;2023-02-16T18:33:37;68.60;;;48.20;;
36241;SDS011;22283;42.748;12.732;2023-02-16T18:38:38;73.53;;;48.03;;
36241;SDS011;22283;42.748;12.732;2023-02-16T18:43:39;69.80;;;49.53;;
36241;SDS011;22283;42.748;12.732;2023-02-16T18:48:39;75.87;;;52.00;;
36241;SDS011;22283;42.748;12.732;2023-02-16T18:53:40;154.77;;;86.10;;
36241;SDS011;22283;42.748;12.732;2023-02-16T18:58:40;98.13;;;64.47;;
36241;SDS011;22283;42.748;12.732;2023-02-16T19:03:41;78.53;;;51.10;;
36241;SDS011;22283;42.748;12.732;2023-02-16T19:08:41;71.47;;;50.23;;
36241;SDS011;22283;42.748;12.732;2023-02-16T19:13:43;70.73;;;51.80;;
36241;SDS011;22283;42.748;12.732;2023-02-16T19:18:44;64.30;;;44.80;;
36241;SDS011;22283;42.748;12.732;2023-02-16T19:23:45;76.73;;;50.47;;
36241;SDS011;22283;42.748;12.732;2023-02-16T19:28:46;69.43;;;52.27;;
36241;SDS011;22283;42.748;12.732;2023-02-16T19:33:47;63.47;;;47.80;;
36241;SDS011;22283;42.748;12.732;2023-02-16T19:38:48;66.30;;;49.13;;
36241;SDS011;22283;42.748;12.732;2023-02-16T19:43:48;65.90;;;47.93;;
36241;SDS011;22283;42.748;12.732;2023-02-16T19:48:49;68.77;;;45.00;;
36241;SDS011;22283;42.748;12.732;2023-02-16T19:53:50;59.80;;;46.00;;
36241;SDS011;22283;42.748;12.732;2023-02-16T19:58:52;56.83;;;43.65;;
36241;SDS011;22283;42.748;12.732;2023-02-16T20:03:54;61.90;;;40.88;;
36241;SDS011;22283;42.748;12.732;2023-02-16T20:08:56;59.70;;;42.08;;
36241;SDS011;22283;42.748;12.732;2023-02-16T20:13:58;66.70;;;40.90;;
36241;SDS011;22283;42.748;12.732;2023-02-16T20:19:00;56.97;;;41.25;;
36241;SDS011;22283;42.748;12.732;2023-02-16T20:24:02;63.60;;;43.30;;
36241;SDS011;22283;42.748;12.732;2023-02-16T20:29:04;46.08;;;37.80;;
36241;SDS011;22283;42.748;12.732;2023-02-16T20:34:07;48.20;;;40.03;;
36241;SDS011;22283;42.748;12.732;2023-02-16T20:39:08;49.22;;;36.97;;
36241;SDS011;22283;42.748;12.732;2023-02-16T20:44:09;54.10;;;39.10;;
36241;SDS011;22283;42.748;12.732;2023-02-16T20:49:11;56.35;;;44.30;;
36241;SDS011;22283;42.748;12.732;2023-02-16T20:54:12;58.35;;;45.05;;
36241;SDS011;22283;42.748;12.732;2023-02-16T20:59:13;59.10;;;43.90;;
36241;SDS011;22283;42.748;12.732;2023-02-16T21:04:15;61.27;;;46.10;;
36241;SDS011;22283;42.748;12.732;2023-02-16T21:09:17;60.00;;;43.50;;
36241;SDS011;22283;42.748;12.732;2023-02-16T21:14:18;57.37;;;42.50;;
36241;SDS011;22283;42.748;12.732;2023-02-16T21:19:18;58.33;;;43.00;;
36241;SDS011;22283;42.748;12.732;2023-02-16T21:24:20;48.97;;;37.72;;
36241;SDS011;22283;42.748;12.732;2023-02-16T21:29:21;55.40;;;43.10;;
36241;SDS011;22283;42.748;12.732;2023-02-16T21:34:22;61.20;;;43.40;;
36241;SDS011;22283;42.748;12.732;2023-02-16T21:39:22;57.00;;;43.90;;
36241;SDS011;22283;42.748;12.732;2023-02-16T21:44:43;60.53;;;45.72;;
36241;SDS011;22283;42.748;12.732;2023-02-16T21:49:44;58.07;;;45.17;;
36241;SDS011;22283;42.748;12.732;2023-02-16T21:54:45;57.13;;;43.83;;
36241;SDS011;22283;42.748;12.732;2023-02-16T22:00:04;61.13;;;43.85;;
36241;SDS011;22283;42.748;12.732;2023-02-16T22:05:07;54.50;;;42.33;;
36241;SDS011;22283;42.748;12.732;2023-02-16T22:10:11;56.75;;;45.30;;
36241;SDS011;22283;42.748;12.732;2023-02-16T22:15:12;77.47;;;52.43;;
36241;SDS011;22283;42.748;12.732;2023-02-16T22:20:12;70.87;;;50.60;;
36241;SDS011;22283;42.748;12.732;2023-02-16T22:25:13;61.20;;;43.80;;
36241;SDS011;22283;42.748;12.732;2023-02-16T22:30:14;60.07;;;42.77;;
36241;SDS011;22283;42.748;12.732;2023-02-16T22:35:15;60.20;;;40.97;;
36241;SDS011;22283;42.748;12.732;2023-02-16T22:40:15;59.37;;;43.37;;
36241;SDS011;22283;42.748;12.732;2023-02-16T22:45:16;65.10;;;45.43;;
36241;SDS011;22283;42.748;12.732;2023-02-16T22:50:17;58.13;;;40.37;;
36241;SDS011;22283;42.748;12.732;2023-02-16T22:55:17;51.67;;;38.40;;
36241;SDS011;22283;42.748;12.732;2023-02-16T23:00:18;50.90;;;36.03;;
36241;SDS011;22283;42.748;12.732;2023-02-16T23:05:19;49.23;;;34.57;;
36241;SDS011;22283;42.748;12.732;2023-02-16T23:10:19;51.30;;;36.60;;
36241;SDS011;22283;42.748;12.732;2023-02-16T23:15:20;48.30;;;35.53;;
36241;SDS011;22283;42.748;12.732;2023-02-16T23:20:21;52.13;;;34.93;;
36241;SDS011;22283;42.748;12.732;2023-02-16T23:25:22;44.17;;;33.30;;
36241;SDS011;22283;42.748;12.732;2023-02-16T23:30:34;54.53;;;36.28;;
36241;SDS011;22283;42.748;12.732;2023-02-16T23:35:36;53.73;;;36.70;;
36241;SDS011;22283;42.748;12.732;2023-02-16T23:40:38;53.20;;;36.67;;
36241;SDS011;22283;42.748;12.732;2023-02-16T23:45:39;53.53;;;37.00;;
36241;SDS011;22283;42.748;12.732;2023-02-16T23:50:40;58.57;;;38.97;;
36241;SDS011;22283;42.748;12.732;2023-02-16T23:55:41;48.87;;;35.23;;
